Gunnison, CO

3:16 PM MDT on September 18, 2014 (GMT -0600)
Gunnison County | Change Station
CLOSE
Current Station
Airport
Location: Gunnison,
Elevation: 7674 ft
Nearby Weather Stations

Elev 7674 ft 38.53 °N, 106.93 °W | Updated 21 minutes ago

Clear
Clear
79 °F
Feels Like 79 °F
N
6
Wind Variable Wind from North

Today
High -- | Low -- °F
--% Chance of Precip.
Yesterday
High -- | Low -- °F
Precip. -- in
6:52 AM 7:11 PM
Waning Crescent, 24% visible
Pressure 30.14 in
Visibility 10.0 miles
Clouds Clear
Dew Point 32 °F
Humidity 18%
Rainfall 0.00 in
Snow Depth 0 in , 0 in , 0 in
UV 7 out of 12
Pollen 5.70 out of 12
Air Quality Not available.
Flu Activity Not available.
METAR KGUC 182055Z AUTO 35005KT 10SM CLR 26/00 A3014 RMK AO1 57037

More Conditions Fewer Conditions

Pressure 30.14 in
Visibility 10.0 miles
Clouds Clear
Dew Point 32 °F
Humidity 18%
Rainfall 0.00 in
Snow Depth 0 in , 0 in , 0 in
UV 7 out of 12
Pollen 5.70 out of 12
Air Quality Not available.
Flu Activity Not available.
METAR KGUC 182055Z AUTO 35005KT 10SM CLR 26/00 A3014 RMK AO1 57037

More Conditions Fewer Conditions

10-Day Weather Forecast

Almanac

Astronomy

Sep. 18, 2014 Rise Set
Actual Time 6:52 AM MDT 7:11 PM MDT
Civil Twilight 6:25 AM MDT 7:37 PM MDT
Nautical Twilight 5:54 AM MDT 8:08 PM MDT
Astronomical Twilight 5:22 AM MDT 8:40 PM MDT
Moon 1:49 AM MDT 4:01 PM MDT
Length of Visible Light 13h 12m
Length of Day
12h 19m
Tomorrow will be 2m 29s shorter.
Waning Crescent, 24% of the Moon is Illuminated
Today
Waning Crescent
Sep 24
New
Oct 1
First Quarter
Oct 8
Full
Oct 15
Last Quarter

Today's Extremes

State Highs State Lows

Community

WunderPhotos

Upload Photos

1,754,448 photos uploaded!

WunderBlogs® & News

Nearby

Snow Depth

Station Depth Elevation
Phantom Valley 0 in 9030 ft
Lizard Head Pass 0 in 10200 ft
Rabbit Ears 0 in 9400 ft
Bear RIver 0 in 9080 ft
Lone Cone 0 in 9600 ft

Earthquake Activity

City Distance Mag. Time & Date
No recent earthquake activity has been reported nearby.
Minimum magnitude displayed is 2.5.

Coastal Water Temperatures

Place Temperature
No Stations Reporting

Nearby Weather Stations